Time;durP1;ratioP1;P1;durP2;ratioP2;P2;SDS_P1;SDS_P2;PMS_P1;PMS_P2;Temp;Humidity;BMP_temperature;BMP_pressure;BME280_temperature;BME280_humidity;BME280_pressure;Samples;Min_cycle;Max_cycle;Signal;HPM_P1;HPM_P2
2024/04/17 00:00:06;;;;;;;12.45;2.78;;;;;;;9.15;57.54;101067.03;5309504;26;112381;-80
2024/04/17 00:02:34;;;;;;;11.02;2.42;;;;;;;9.14;57.50;101060.00;5313647;26;113545;-79
2024/04/17 00:05:01;;;;;;;9.43;2.42;;;;;;;9.13;57.75;101068.84;5288377;26;121002;-79
2024/04/17 00:07:28;;;;;;;13.18;2.10;;;;;;;9.12;57.63;101061.84;5304626;26;121812;-79
2024/04/17 00:09:56;;;;;;;6.70;2.38;;;;;;;9.11;57.50;101065.38;5288617;26;112490;-79
2024/04/17 00:12:23;;;;;;;8.75;2.40;;;;;;;9.11;57.65;101060.09;5305934;26;112929;-79
2024/04/17 00:14:50;;;;;;;9.98;2.30;;;;;;;9.10;57.61;101063.69;5304037;26;122676;-79
2024/04/17 00:17:17;;;;;;;11.93;2.70;;;;;;;9.09;57.54;101061.94;5291626;26;122911;-79
2024/04/17 00:19:45;;;;;;;8.45;2.17;;;;;;;9.07;57.51;101058.50;5300293;26;112021;-79
2024/04/17 00:22:12;;;;;;;12.07;2.55;;;;;;;9.06;57.57;101062.06;5326193;26;112444;-79
2024/04/17 00:24:39;;;;;;;11.25;2.83;;;;;;;9.06;57.66;101066.47;5301349;26;122291;-79
2024/04/17 00:27:07;;;;;;;8.55;2.35;;;;;;;9.06;57.55;101062.06;5318546;26;122017;-79
2024/04/17 00:29:34;;;;;;;14.48;2.22;;;;;;;9.05;57.84;101060.31;5287189;26;111994;-79
2024/04/17 00:32:01;;;;;;;11.07;2.55;;;;;;;9.05;57.56;101062.97;5288235;26;111684;-79
2024/04/17 00:34:29;;;;;;;8.35;2.40;;;;;;;9.04;57.66;101063.91;5290112;26;119864;-79
2024/04/17 00:36:56;;;;;;;10.38;2.60;;;;;;;9.04;57.63;101058.63;5283422;26;122585;-79
2024/04/17 00:39:26;;;;;;;7.40;2.72;;;;;;;9.03;57.58;101059.53;5298720;26;112989;-79
2024/04/17 00:41:53;;;;;;;8.82;3.03;;;;;;;9.02;57.65;101057.78;5276391;26;111239;-79
2024/04/17 00:44:21;;;;;;;11.57;2.50;;;;;;;9.00;57.71;101051.69;5329232;26;121502;-79
2024/04/17 00:46:48;;;;;;;12.68;2.70;;;;;;;8.99;57.59;101049.97;5288027;26;122641;-79
2024/04/17 00:49:16;;;;;;;8.85;2.35;;;;;;;8.98;57.66;101048.25;5298519;26;111734;-79
2024/04/17 00:51:45;;;;;;;11.48;2.33;;;;;;;8.96;57.77;101050.09;5275118;26;111349;-79
2024/04/17 00:54:14;;;;;;;8.07;2.40;;;;;;;8.96;57.81;101047.44;5291891;26;121876;-79
2024/04/17 00:56:41;;;;;;;13.35;2.50;;;;;;;8.93;57.72;101050.22;5281674;26;120690;-79
2024/04/17 00:59:10;;;;;;;11.93;2.90;;;;;;;8.92;57.86;101053.75;5310357;26;112626;-79
2024/04/17 01:01:37;;;;;;;11.07;2.50;;;;;;;8.90;57.73;101051.16;5276828;26;110801;-79
2024/04/17 01:04:04;;;;;;;13.50;3.00;;;;;;;8.88;57.69;101053.00;5310842;26;122952;-79
2024/04/17 01:06:32;;;;;;;9.00;2.53;;;;;;;8.86;57.53;101048.69;5319775;26;122977;-79
2024/04/17 01:08:59;;;;;;;14.00;2.85;;;;;;;8.85;57.69;101053.09;5290906;26;112641;-78
2024/04/17 01:11:37;;;;;;;10.25;2.63;;;;;;;8.81;57.93;101047.97;5315116;26;112333;-79
2024/04/17 01:14:04;;;;;;;9.57;2.58;;;;;;;8.80;57.45;101054.16;5315248;26;121116;-79
2024/04/17 01:16:33;;;;;;;13.65;3.20;;;;;;;8.76;57.50;101049.00;5305438;26;120868;-80
2024/04/17 01:19:01;;;;;;;11.88;2.70;;;;;;;8.71;57.78;101050.94;5302450;26;112315;-79
2024/04/17 01:21:29;;;;;;;13.18;2.55;;;;;;;8.69;57.87;101047.47;5309374;26;111575;-79
2024/04/17 01:23:56;;;;;;;8.55;2.55;;;;;;;8.68;57.95;101050.16;5282434;26;121310;-79
2024/04/17 01:26:24;;;;;;;9.43;2.50;;;;;;;8.66;58.02;101042.28;5248122;26;121863;-80
2024/04/17 01:28:51;;;;;;;12.00;2.95;;;;;;;8.65;57.96;101043.22;5325447;26;112420;-79
2024/04/17 01:31:19;;;;;;;12.98;2.72;;;;;;;8.63;57.70;101039.78;5324502;26;112796;-79
2024/04/17 01:33:46;;;;;;;9.60;2.30;;;;;;;8.62;58.06;101040.69;5318035;26;120998;-79
2024/04/17 01:36:14;;;;;;;11.20;2.20;;;;;;;8.61;58.00;101033.69;5311239;26;121850;-79
2024/04/17 01:38:42;;;;;;;11.35;2.38;;;;;;;8.60;57.91;101039.88;5280081;26;112570;-79
2024/04/17 01:41:09;;;;;;;10.15;2.40;;;;;;;8.59;58.21;101046.09;5312162;26;113482;-79
2024/04/17 01:43:37;;;;;;;10.68;2.25;;;;;;;8.57;57.96;101047.91;5309213;26;121892;-79
2024/04/17 01:46:04;;;;;;;12.40;2.47;;;;;;;8.56;58.11;101040.91;5286737;26;123539;-79
2024/04/17 01:48:31;;;;;;;12.60;2.63;;;;;;;8.55;57.98;101044.44;5285117;26;112400;-79
2024/04/17 01:50:59;;;;;;;13.15;2.30;;;;;;;8.53;58.03;101035.69;5287405;26;111680;-79
2024/04/17 01:53:26;;;;;;;11.80;2.20;;;;;;;8.51;57.87;101042.81;5304352;26;122297;-79
2024/04/17 01:55:54;;;;;;;14.85;2.60;;;;;;;8.48;57.92;101035.00;5314224;26;122087;-79
2024/04/17 01:58:21;;;;;;;8.90;2.70;;;;;;;8.46;58.03;101045.63;5306932;26;113215;-78
2024/04/17 02:00:49;;;;;;;9.25;2.30;;;;;;;8.45;57.91;101037.75;5321351;26;112806;-79
2024/04/17 02:03:16;;;;;;;9.77;2.55;;;;;;;8.43;58.13;101034.28;5320726;26;122065;-79
2024/04/17 02:05:44;;;;;;;10.48;2.63;;;;;;;8.41;58.03;101025.53;5280794;26;122385;-79
2024/04/17 02:08:11;;;;;;;8.63;2.55;;;;;;;8.41;58.13;101036.09;5307454;26;113269;-79
2024/04/17 02:10:38;;;;;;;11.68;2.72;;;;;;;8.37;58.08;101038.81;5266115;26;111551;-79
2024/04/17 02:13:06;;;;;;;13.38;3.20;;;;;;;8.36;58.02;101029.19;5278723;26;122155;-79
2024/04/17 02:15:33;;;;;;;11.82;2.85;;;;;;;8.34;58.13;101030.13;5310632;26;122195;-79
2024/04/17 02:18:00;;;;;;;13.27;2.80;;;;;;;8.32;58.33;101032.81;5275181;26;112307;-79
2024/04/17 02:20:28;;;;;;;8.27;2.70;;;;;;;8.31;58.25;101036.41;5292772;26;111478;-79
2024/04/17 02:22:55;;;;;;;9.40;3.08;;;;;;;8.29;58.11;101038.22;5314106;26;122100;-79
2024/04/17 02:25:23;;;;;;;12.55;2.85;;;;;;;8.27;58.18;101040.06;5287996;26;122340;-80
2024/04/17 02:27:51;;;;;;;13.55;3.50;;;;;;;8.26;58.25;101043.59;5283797;26;113002;-79
2024/04/17 02:30:18;;;;;;;12.25;3.13;;;;;;;8.24;58.32;101034.84;5300621;26;115423;-79
2024/04/17 02:32:46;;;;;;;11.88;3.30;;;;;;;8.23;58.42;101033.16;5309974;26;122289;-79
2024/04/17 02:35:13;;;;;;;9.30;3.10;;;;;;;8.21;58.43;101042.84;5306998;26;122042;-79
2024/04/17 02:37:40;;;;;;;10.43;3.10;;;;;;;8.19;58.40;101036.78;5320960;26;113087;-79
2024/04/17 02:40:08;;;;;;;13.80;3.28;;;;;;;8.20;58.36;101049.06;5282540;26;112492;-79
2024/04/17 02:42:36;;;;;;;14.43;3.45;;;;;;;8.19;58.33;101042.94;5290831;26;122668;-79
2024/04/17 02:45:03;;;;;;;12.90;3.53;;;;;;;8.18;58.57;101045.63;5276044;26;122141;-79
2024/04/17 02:47:31;;;;;;;14.57;3.70;;;;;;;8.17;58.23;101033.31;5309605;26;112396;-79
2024/04/17 02:49:59;;;;;;;12.38;3.78;;;;;;;8.15;58.59;101056.25;5295231;26;112927;-79
2024/04/17 02:52:26;;;;;;;13.63;3.70;;;;;;;8.16;58.64;101052.72;5293575;26;122614;-78
2024/04/17 02:54:54;;;;;;;11.05;3.35;;;;;;;8.15;58.40;101056.25;5306393;26;122588;-79
2024/04/17 02:57:21;;;;;;;13.43;3.70;;;;;;;8.15;58.56;101053.63;5320507;26;111886;-79
2024/04/17 02:59:50;;;;;;;15.57;4.70;;;;;;;8.15;58.63;101050.97;5312591;26;112295;-79
2024/04/17 03:02:17;;;;;;;10.88;3.70;;;;;;;8.15;58.77;101050.97;5255614;26;120857;-80
2024/04/17 03:04:44;;;;;;;20.45;4.30;;;;;;;8.14;58.79;101049.28;5265731;26;123081;-79
2024/04/17 03:07:12;;;;;;;11.30;4.25;;;;;;;8.14;58.65;101049.28;5331553;26;112535;-79
2024/04/17 03:09:39;;;;;;;9.10;3.80;;;;;;;8.14;58.89;101044.84;5291710;26;111401;-79
2024/04/17 03:12:07;;;;;;;11.27;4.00;;;;;;;8.15;58.88;101043.91;5286456;26;121397;-79
2024/04/17 03:14:34;;;;;;;15.57;4.53;;;;;;;8.15;58.88;101040.44;5331536;26;122583;-79
2024/04/17 03:17:02;;;;;;;11.90;4.05;;;;;;;8.16;58.83;101036.88;5288697;26;112939;-79
2024/04/17 03:19:29;;;;;;;15.30;4.45;;;;;;;8.16;58.76;101042.16;5284859;26;112453;-79
2024/04/17 03:21:56;;;;;;;12.93;4.20;;;;;;;8.18;58.94;101040.34;5319959;26;121721;-79
2024/04/17 03:24:24;;;;;;;12.27;4.40;;;;;;;8.19;58.93;101042.06;5307561;26;122326;-79
2024/04/17 03:26:53;;;;;;;11.93;4.38;;;;;;;8.21;59.20;101050.78;5294507;26;111972;-79
2024/04/17 03:29:21;;;;;;;18.67;4.97;;;;;;;8.22;58.98;101052.50;5284814;26;111888;-79
2024/04/17 03:31:48;;;;;;;11.43;4.45;;;;;;;8.23;59.04;101054.25;5240079;26;121827;-79
2024/04/17 03:34:16;;;;;;;11.88;4.53;;;;;;;8.27;59.00;101050.59;5317499;26;122285;-79
2024/04/17 03:36:43;;;;;;;13.10;4.35;;;;;;;8.29;59.08;101054.06;5321548;26;113385;-79
2024/04/17 03:39:10;;;;;;;16.58;4.88;;;;;;;8.31;59.35;101056.66;5282119;26;112832;-79
2024/04/17 03:41:38;;;;;;;16.02;4.57;;;;;;;8.33;59.30;101050.41;5264202;26;121611;-80
2024/04/17 03:44:05;;;;;;;12.85;4.88;;;;;;;8.36;59.26;101060.88;5261146;26;119906;-80
2024/04/17 03:46:32;;;;;;;13.38;5.10;;;;;;;8.39;59.45;101066.03;5306147;26;113286;-79
2024/04/17 03:49:00;;;;;;;10.05;4.53;;;;;;;8.44;59.48;101062.41;5283995;26;111979;-79
2024/04/17 03:51:28;;;;;;;10.23;4.80;;;;;;;8.46;59.32;101071.16;5321964;26;122115;-80
2024/04/17 03:53:56;;;;;;;12.15;4.60;;;;;;;8.48;59.44;101067.53;5298362;26;119599;-79
2024/04/17 03:56:26;;;;;;;15.18;5.00;;;;;;;8.52;59.55;101068.31;5288677;26;110842;-79
2024/04/17 03:58:54;;;;;;;18.80;4.82;;;;;;;8.56;59.44;101072.56;5318549;26;112422;-80
2024/04/17 04:01:22;;;;;;;13.90;5.03;;;;;;;8.58;59.60;101076.03;5321147;26;122330;-79
2024/04/17 04:03:50;;;;;;;14.95;4.57;;;;;;;8.62;59.57;101072.34;5306606;26;122521;-79
2024/04/17 04:06:18;;;;;;;10.15;4.97;;;;;;;8.65;59.81;101072.28;5267911;26;111502;-79
2024/04/17 04:08:46;;;;;;;16.20;4.97;;;;;;;8.69;59.58;101079.16;5301250;26;112934;-79
2024/04/17 04:11:14;;;;;;;14.25;5.05;;;;;;;8.71;59.57;101072.06;5273132;26;122132;-80
2024/04/17 04:13:41;;;;;;;11.63;5.10;;;;;;;8.75;59.82;101078.94;5332731;26;123770;-80
2024/04/17 04:16:09;;;;;;;11.73;4.78;;;;;;;8.77;59.33;101082.41;5330187;26;111362;-79
2024/04/17 04:18:36;;;;;;;10.95;4.30;;;;;;;8.79;59.62;101078.88;5293005;26;112656;-79
2024/04/17 04:21:04;;;;;;;13.07;4.40;;;;;;;8.82;59.63;101070.84;5266346;26;121570;-79
2024/04/17 04:23:32;;;;;;;12.63;4.45;;;;;;;8.84;59.65;101079.56;5324593;26;125292;-79
2024/04/17 04:26:00;;;;;;;10.77;4.22;;;;;;;8.88;59.71;101078.56;5265596;26;110401;-79
2024/04/17 04:28:28;;;;;;;9.88;4.03;;;;;;;8.90;59.96;101071.44;5325420;26;112562;-79
2024/04/17 04:30:55;;;;;;;8.68;4.10;;;;;;;8.93;59.74;101074.84;5315064;26;122175;-80
2024/04/17 04:33:23;;;;;;;13.90;4.10;;;;;;;8.96;59.63;101071.22;5330815;26;122426;-80
2024/04/17 04:35:50;;;;;;;9.80;3.53;;;;;;;8.98;60.04;101069.38;5295100;26;111905;-79
2024/04/17 04:38:19;;;;;;;10.10;3.22;;;;;;;9.02;59.68;101070.13;5298143;26;111498;-79
2024/04/17 04:40:46;;;;;;;5.10;3.20;;;;;;;9.03;59.61;101067.44;5303464;26;122474;-80
2024/04/17 04:43:14;;;;;;;7.85;3.15;;;;;;;9.06;59.63;101072.63;5331646;26;122894;-79
2024/04/17 04:45:41;;;;;;;5.75;2.97;;;;;;;9.09;59.69;101077.78;5300451;26;112287;-79
2024/04/17 04:48:08;;;;;;;5.82;2.70;;;;;;;9.13;59.64;101078.56;5336857;26;112395;-79
2024/04/17 04:50:38;;;;;;;6.82;2.88;;;;;;;9.14;59.87;101075.84;5322632;26;122365;-79
2024/04/17 04:53:05;;;;;;;9.95;3.95;;;;;;;9.19;59.82;101077.47;5281265;26;121531;-80
2024/04/17 04:55:32;;;;;;;10.18;4.03;;;;;;;9.20;59.69;101079.22;5299725;26;113817;-80
2024/04/17 04:58:00;;;;;;;13.57;4.13;;;;;;;9.22;59.90;101082.66;5281120;26;113428;-79
2024/04/17 05:00:28;;;;;;;6.78;3.25;;;;;;;9.24;59.93;101086.09;5283519;26;123158;-79
2024/04/17 05:02:56;;;;;;;8.95;3.42;;;;;;;9.28;59.94;101082.44;5291251;26;121215;-79
2024/04/17 05:05:23;;;;;;;7.65;3.30;;;;;;;9.30;59.97;101080.59;5290449;26;113054;-79
2024/04/17 05:07:51;;;;;;;7.90;3.08;;;;;;;9.32;59.94;101078.75;5295398;26;111936;-79
2024/04/17 05:10:19;;;;;;;4.50;2.35;;;;;;;9.33;59.85;101088.44;5285188;26;125109;-79
2024/04/17 05:12:46;;;;;;;4.97;2.35;;;;;;;9.35;60.00;101083.94;5298405;26;121948;-80
2024/04/17 05:15:14;;;;;;;5.15;2.30;;;;;;;9.38;59.68;101082.97;5300354;26;111730;-80
2024/04/17 05:17:41;;;;;;;3.95;1.90;;;;;;;9.41;59.79;101083.72;5311027;26;112254;-81
2024/04/17 05:20:09;;;;;;;2.80;1.58;;;;;;;9.42;60.01;101076.63;5287747;26;119897;-79
2024/04/17 05:22:44;;;;;;;5.28;1.80;;;;;;;9.44;59.98;101072.19;5302580;26;121140;-80
2024/04/17 05:25:46;;;;;;;2.42;1.42;;;;;;;9.47;59.93;101074.69;5324342;26;113418;-80
2024/04/17 05:28:19;;;;;;;4.32;1.35;;;;;;;9.50;59.66;101078.09;5274235;26;110788;-80
2024/04/17 05:31:00;;;;;;;3.65;1.30;;;;;;;9.51;59.67;101079.84;5327198;26;120680;-80
2024/04/17 05:37:23;;;;;;;3.38;1.05;;;;;;;9.55;59.71;101076.16;5299929;26;111157;-80
2024/04/17 05:40:30;;;;;;;2.85;1.00;;;;;;;9.60;59.54;101077.75;5258848;21;112565;-62
2024/04/17 05:42:58;;;;;;;3.08;1.00;;;;;;;9.62;59.72;101075.91;5247075;26;122082;-62
2024/04/17 05:45:25;;;;;;;5.82;1.38;;;;;;;9.67;59.94;101073.97;5252959;26;122226;-62
2024/04/17 05:47:52;;;;;;;3.25;1.10;;;;;;;9.71;59.74;101083.50;5242497;26;113222;-62
2024/04/17 05:50:20;;;;;;;4.53;1.10;;;;;;;9.77;59.88;101077.97;5253263;26;113684;-62
2024/04/17 05:52:47;;;;;;;4.60;1.00;;;;;;;9.83;59.76;101080.41;5214600;26;122201;-62
2024/04/17 05:55:15;;;;;;;2.85;1.02;;;;;;;9.88;59.80;101078.44;5246808;26;122630;-61
2024/04/17 05:57:42;;;;;;;4.60;1.38;;;;;;;9.93;59.78;101087.06;5244995;26;112924;-62
2024/04/17 06:00:10;;;;;;;9.18;1.35;;;;;;;9.99;59.67;101085.09;5240050;26;111998;-62
2024/04/17 06:02:38;;;;;;;3.40;1.25;;;;;;;10.03;59.70;101089.34;5239930;26;121927;-62
2024/04/17 06:05:06;;;;;;;4.80;1.17;;;;;;;10.08;59.69;101082.09;5237558;26;122588;-61
2024/04/17 06:07:34;;;;;;;2.85;0.88;;;;;;;10.12;59.66;101086.34;5235321;26;112616;-62
2024/04/17 06:10:01;;;;;;;3.85;1.17;;;;;;;10.15;59.69;101086.22;5244049;26;112769;-62
2024/04/17 06:12:29;;;;;;;3.15;1.20;;;;;;;10.18;59.60;101086.09;5212956;26;120912;-62
2024/04/17 06:14:56;;;;;;;5.07;1.30;;;;;;;10.21;59.53;101091.28;5238467;26;123212;-62
2024/04/17 06:17:24;;;;;;;3.45;1.08;;;;;;;10.22;59.39;101093.00;5239914;26;111959;-64
2024/04/17 06:19:52;;;;;;;3.75;1.10;;;;;;;10.24;59.39;101093.78;5239892;26;112942;-64
2024/04/17 06:22:20;;;;;;;2.97;1.20;;;;;;;10.26;59.39;101089.28;5240428;26;122856;-65
2024/04/17 06:24:47;;;;;;;4.05;1.40;;;;;;;10.30;59.33;101093.59;5233106;26;122821;-64
2024/04/17 06:27:15;;;;;;;3.28;1.33;;;;;;;10.35;59.46;101089.91;5242124;26;112812;-64
2024/04/17 06:29:43;;;;;;;3.35;1.10;;;;;;;10.38;59.28;101092.41;5262366;26;112554;-64
2024/04/17 06:32:10;;;;;;;6.30;1.58;;;;;;;10.40;59.22;101091.44;5238159;26;122161;-65
2024/04/17 06:34:41;;;;;;;2.50;1.35;;;;;;;10.41;59.35;101092.28;5248278;26;122662;-64
2024/04/17 06:37:08;;;;;;;4.05;1.60;;;;;;;10.40;59.16;101091.44;5249357;26;113148;-62
2024/04/17 06:39:36;;;;;;;5.00;1.23;;;;;;;10.37;59.22;101091.56;5263093;26;114408;-62
2024/04/17 06:42:03;;;;;;;4.13;1.50;;;;;;;10.38;59.23;101097.69;5238915;26;122355;-62
2024/04/17 06:44:31;;;;;;;5.85;2.15;;;;;;;10.37;59.18;101091.56;5236231;26;123030;-62
2024/04/17 06:47:00;;;;;;;5.63;1.45;;;;;;;10.37;59.16;101096.00;5244061;26;112425;-62
2024/04/17 06:49:28;;;;;;;4.28;1.70;;;;;;;10.37;59.05;101088.06;5207428;26;111282;-62
2024/04/17 06:51:56;;;;;;;4.70;1.55;;;;;;;10.38;59.27;101092.41;5216254;26;121085;-62
2024/04/17 06:54:23;;;;;;;5.03;1.67;;;;;;;10.41;59.36;101094.94;5237776;26;122029;-65
2024/04/17 06:56:51;;;;;;;4.82;1.40;;;;;;;10.46;59.50;101090.34;5238439;26;110367;-65
2024/04/17 06:59:18;;;;;;;4.55;1.50;;;;;;;10.51;59.47;101093.66;5245348;26;112486;-65
2024/04/17 07:01:45;;;;;;;6.13;1.52;;;;;;;10.54;59.53;101098.81;5252785;26;123252;-64
2024/04/17 07:04:13;;;;;;;2.92;1.30;;;;;;;10.59;59.38;101091.56;5224841;26;121307;-62
2024/04/17 07:06:43;;;;;;;5.18;1.27;;;;;;;10.64;59.40;101089.59;5251913;26;112907;-62
2024/04/17 07:09:11;;;;;;;4.15;1.75;;;;;;;10.75;59.31;101096.22;5260874;26;112456;-62
2024/04/17 07:11:38;;;;;;;3.42;1.30;;;;;;;10.87;59.67;101095.72;5255375;26;122108;-62
2024/04/17 07:14:06;;;;;;;4.72;1.88;;;;;;;10.99;59.54;101094.31;5242890;26;122310;-64
2024/04/17 07:16:39;;;;;;;7.55;1.67;;;;;;;11.14;59.85;101095.44;5251431;26;112832;-62
2024/04/17 07:19:07;;;;;;;6.53;1.80;;;;;;;11.29;59.82;101090.31;5245814;26;113492;-62
2024/04/17 07:21:35;;;;;;;5.20;1.48;;;;;;;11.45;59.88;101102.91;5250892;26;122377;-62
2024/04/17 07:24:02;;;;;;;5.13;1.50;;;;;;;11.58;59.63;101087.31;5245787;26;122248;-62
2024/04/17 07:26:30;;;;;;;4.88;1.60;;;;;;;11.73;59.68;101097.22;5241657;26;113636;-62
2024/04/17 07:28:57;;;;;;;4.93;1.65;;;;;;;11.90;59.63;101087.66;5213587;26;113837;-65
2024/04/17 07:31:26;;;;;;;3.97;1.65;;;;;;;12.00;59.48;101089.81;5200264;26;121084;-65
2024/04/17 07:33:53;;;;;;;8.10;1.70;;;;;;;12.12;59.56;101091.00;5237546;26;121389;-65
2024/04/17 07:36:20;;;;;;;8.80;1.90;;;;;;;12.25;59.38;101089.50;5238908;26;113068;-64
2024/04/17 07:38:48;;;;;;;4.07;1.58;;;;;;;12.36;59.23;101082.81;5243049;26;112452;-65
2024/04/17 07:41:15;;;;;;;4.22;1.30;;;;;;;12.49;59.10;101083.94;5244087;26;122324;-64
2024/04/17 07:43:46;;;;;;;5.40;1.30;;;;;;;12.62;59.02;101076.19;5242538;26;122293;-65
2024/04/17 07:46:13;;;;;;;5.78;1.33;;;;;;;12.73;58.62;101078.31;5234158;26;112572;-65
2024/04/17 07:48:41;;;;;;;5.38;1.35;;;;;;;12.82;58.63;101088.50;5242958;26;112790;-64
2024/04/17 07:51:08;;;;;;;6.72;1.67;;;;;;;12.94;58.69;101071.94;5250432;26;122941;-64
2024/04/17 07:53:36;;;;;;;7.25;1.30;;;;;;;13.07;58.55;101077.44;5246466;26;119947;-64
2024/04/17 07:56:03;;;;;;;6.95;1.48;;;;;;;13.16;58.26;101070.81;5223024;26;112759;-64
2024/04/17 07:58:31;;;;;;;4.28;1.27;;;;;;;13.24;57.60;101074.78;5242706;26;111620;-64
2024/04/17 08:00:58;;;;;;;6.38;1.38;;;;;;;13.29;57.55;101071.88;5223213;26;122171;-64
2024/04/17 08:03:26;;;;;;;6.47;1.10;;;;;;;13.40;57.44;101074.00;5254860;26;122266;-64
2024/04/17 08:05:53;;;;;;;2.05;1.00;;;;;;;13.46;56.91;101075.50;5240610;26;112696;-64
2024/04/17 08:08:21;;;;;;;4.10;1.00;;;;;;;13.51;56.82;101076.09;5239743;26;112667;-64
2024/04/17 08:10:48;;;;;;;6.00;1.45;;;;;;;13.55;56.67;101072.34;5242904;26;122926;-65
2024/04/17 08:13:16;;;;;;;4.68;1.10;;;;;;;13.56;56.29;101071.38;5246121;26;122530;-64
2024/04/17 08:15:48;;;;;;;5.22;1.13;;;;;;;13.63;56.28;101070.97;5244000;26;113301;-62
2024/04/17 08:18:15;;;;;;;5.72;1.00;;;;;;;13.68;55.83;101073.38;5246617;26;113411;-62
2024/04/17 08:20:43;;;;;;;7.55;1.30;;;;;;;13.74;56.12;101073.03;5246095;26;123107;-62
2024/04/17 08:23:11;;;;;;;4.70;1.33;;;;;;;13.76;55.91;101059.66;5252976;26;121960;-62
2024/04/17 08:25:40;;;;;;;7.88;1.13;;;;;;;13.75;55.48;101064.13;5256998;26;112944;-62
2024/04/17 08:28:09;;;;;;;2.35;1.00;;;;;;;13.80;55.29;101072.69;5254612;26;112542;-61
2024/04/17 08:30:38;;;;;;;4.63;1.05;;;;;;;13.90;55.58;101072.19;5257240;26;122140;-62
2024/04/17 08:33:05;;;;;;;3.28;1.08;;;;;;;14.04;55.43;101064.31;5252216;26;123931;-62
2024/04/17 08:35:37;;;;;;;7.50;1.20;;;;;;;14.20;55.43;101069.63;5240754;26;113279;-62
2024/04/17 08:38:05;;;;;;;6.97;1.15;;;;;;;14.39;55.33;101072.09;5250993;26;112462;-62
2024/04/17 08:40:32;;;;;;;5.28;1.30;;;;;;;14.50;55.27;101077.66;5256003;26;122383;-62
2024/04/17 08:43:04;;;;;;;4.35;1.13;;;;;;;14.54;54.75;101076.56;5243361;26;122816;-62
2024/04/17 08:45:33;;;;;;;3.63;0.88;;;;;;;14.50;54.18;101075.00;5245682;26;113773;-62
2024/04/17 08:48:23;;;;;;;5.50;0.98;;;;;;;14.42;53.89;101074.59;5249487;26;113231;-62
2024/04/17 08:50:52;;;;;;;2.33;0.70;;;;;;;14.37;53.95;101066.00;5244440;26;122277;-62
2024/04/17 08:53:20;;;;;;;3.75;1.00;;;;;;;14.30;53.70;101075.31;5250198;26;122316;-62
2024/04/17 08:55:47;;;;;;;2.45;0.80;;;;;;;14.33;53.84;101072.44;5235068;26;112825;-62
2024/04/17 08:58:16;;;;;;;4.93;0.95;;;;;;;14.43;53.33;101068.31;5259092;26;113418;-62
2024/04/17 09:00:49;;;;;;;4.65;1.00;;;;;;;14.48;53.48;101076.91;5240258;26;123085;-62
2024/04/17 09:03:22;;;;;;;3.63;1.00;;;;;;;14.57;53.43;101068.41;5247453;26;122200;-62
2024/04/17 09:05:52;;;;;;;4.68;1.33;;;;;;;14.69;53.55;101077.50;5250947;26;112307;-64
2024/04/17 09:08:24;;;;;;;4.20;0.95;;;;;;;14.78;53.24;101076.94;5245965;26;113145;-64
2024/04/17 09:10:54;;;;;;;4.68;0.77;;;;;;;14.89;53.11;101084.31;5242598;26;122498;-62
2024/04/17 09:13:22;;;;;;;2.90;0.90;;;;;;;14.94;53.28;101066.25;5239628;26;122288;-62
2024/04/17 09:15:50;;;;;;;6.03;1.13;;;;;;;15.02;52.40;101072.94;5241703;26;112586;-61
2024/04/17 09:18:24;;;;;;;7.45;1.13;;;;;;;15.06;52.42;101063.78;5241386;26;112701;-61
2024/04/17 09:20:54;;;;;;;6.78;1.17;;;;;;;15.14;52.68;101061.50;5244955;26;122201;-62
2024/04/17 09:23:21;;;;;;;4.38;1.00;;;;;;;15.24;52.24;101067.13;5243369;26;122119;-62
2024/04/17 09:25:49;;;;;;;4.38;1.13;;;;;;;15.33;52.19;101062.13;5242562;26;115216;-62
2024/04/17 09:28:18;;;;;;;3.25;0.90;;;;;;;15.40;51.70;101062.56;5246454;26;112871;-61
2024/04/17 09:30:48;;;;;;;6.60;0.95;;;;;;;15.42;51.53;101060.66;5258565;26;123075;-64
2024/04/17 09:33:16;;;;;;;6.93;1.08;;;;;;;15.43;51.14;101061.56;5247763;26;122568;-64
2024/04/17 09:35:43;;;;;;;4.43;0.90;;;;;;;15.44;51.14;101068.59;5239020;26;112413;-64
2024/04/17 09:38:15;;;;;;;4.68;0.80;;;;;;;15.41;50.72;101063.44;5238672;26;113451;-63
2024/04/17 09:40:46;;;;;;;4.05;0.70;;;;;;;15.31;50.61;101063.13;5242132;26;122117;-64
2024/04/17 09:43:29;;;;;;;2.80;0.90;;;;;;;15.17;50.37;101066.66;5225315;26;121068;-64
2024/04/17 09:46:01;;;;;;;2.92;1.10;;;;;;;15.03;50.49;101074.63;5241198;26;112602;-64
2024/04/17 09:48:30;;;;;;;2.15;0.70;;;;;;;14.82;50.05;101082.97;5247540;26;111967;-63
2024/04/17 09:51:03;;;;;;;5.35;1.00;;;;;;;14.56;50.42;101082.66;5247664;26;122568;-64
2024/04/17 09:53:37;;;;;;;1.20;0.60;;;;;;;14.31;49.97;101082.34;5235207;26;122134;-64
2024/04/17 09:56:09;;;;;;;1.50;0.73;;;;;;;14.07;50.46;101090.78;5248608;26;113922;-64
2024/04/17 09:58:39;;;;;;;2.00;0.60;;;;;;;13.83;50.39;101091.19;5243225;26;114333;-64
2024/04/17 10:01:13;;;;;;;3.17;0.88;;;;;;;13.63;50.74;101094.91;5233355;26;122788;-63
2024/04/17 10:03:44;;;;;;;2.33;0.90;;;;;;;13.42;50.42;101099.59;5237652;26;122034;-64
2024/04/17 10:06:12;;;;;;;2.60;0.88;;;;;;;13.25;50.71;101097.78;5239163;26;112940;-64
2024/04/17 10:08:42;;;;;;;1.42;0.60;;;;;;;13.11;50.98;101094.09;5241232;26;112932;-63
2024/04/17 10:11:10;;;;;;;3.42;0.88;;;;;;;13.00;51.37;101094.69;5228633;26;122621;-63
2024/04/17 10:13:39;;;;;;;1.30;0.70;;;;;;;12.89;51.43;101089.91;5219351;26;121393;-63
2024/04/17 10:16:08;;;;;;;1.25;0.70;;;;;;;12.80;51.45;101095.69;5234432;26;111708;-63
2024/04/17 10:18:39;;;;;;;1.38;0.80;;;;;;;12.74;51.65;101085.38;5237789;26;112408;-63
2024/04/17 10:21:16;;;;;;;2.00;0.95;;;;;;;12.70;52.03;101084.66;5239775;26;122181;-63
2024/04/17 10:23:44;;;;;;;2.72;0.77;;;;;;;12.70;52.05;101083.81;5254514;26;122223;-63
2024/04/17 10:26:11;;;;;;;0.85;0.50;;;;;;;12.71;52.04;101090.81;5244642;26;112728;-63
2024/04/17 10:28:53;;;;;;;0.60;0.43;;;;;;;12.78;51.98;101081.63;5243900;26;112898;-63
2024/04/17 10:31:20;;;;;;;1.95;0.77;;;;;;;12.94;52.85;101082.56;5254746;26;122529;-63
2024/04/17 10:33:47;;;;;;;1.20;0.57;;;;;;;13.16;52.56;101092.09;5237934;26;121879;-64
2024/04/17 10:36:15;;;;;;;1.20;0.55;;;;;;;13.32;52.48;101087.72;5233704;26;114347;-64
2024/04/17 10:38:43;;;;;;;1.33;0.55;;;;;;;13.43;52.08;101082.69;5241063;26;112650;-64
2024/04/17 10:41:13;;;;;;;0.95;0.52;;;;;;;13.50;51.50;101079.69;5238525;26;122483;-64
2024/04/17 10:43:40;;;;;;;0.80;0.50;;;;;;;13.56;51.59;101079.34;5244056;26;122067;-64
2024/04/17 10:46:09;;;;;;;2.22;0.63;;;;;;;13.62;51.66;101084.38;5239732;26;113623;-64
2024/04/17 10:48:46;;;;;;;1.95;0.50;;;;;;;13.69;51.39;101076.91;5238442;26;113431;-64
2024/04/17 10:51:15;;;;;;;1.83;0.80;;;;;;;13.77;50.99;101080.88;5236062;26;122141;-64
2024/04/17 10:53:45;;;;;;;0.85;0.60;;;;;;;13.83;51.13;101077.88;5250450;26;122061;-64
2024/04/17 10:56:14;;;;;;;0.60;0.60;;;;;;;13.89;50.88;101081.16;5245181;26;112713;-64
2024/04/17 10:58:43;;;;;;;2.63;0.57;;;;;;;13.92;50.90;101080.97;5216543;26;111641;-64
2024/04/17 11:01:16;;;;;;;0.73;0.60;;;;;;;13.97;50.82;101078.91;5238038;26;122364;-64
2024/04/17 11:03:44;;;;;;;0.50;0.45;;;;;;;14.04;50.81;101085.63;5246104;26;122349;-64
2024/04/17 11:06:12;;;;;;;0.70;0.68;;;;;;;14.13;50.64;101079.78;5238370;26;112522;-64
2024/04/17 11:08:40;;;;;;;0.80;0.50;;;;;;;14.20;50.31;101080.28;5239999;26;112830;-64
2024/04/17 11:11:21;;;;;;;2.08;0.65;;;;;;;14.25;50.25;101082.69;5217254;26;121079;-64
2024/04/17 11:13:50;;;;;;;2.72;0.70;;;;;;;14.29;50.10;101079.75;5240670;26;122023;-64
2024/04/17 11:16:17;;;;;;;0.93;0.65;;;;;;;14.31;49.99;101082.34;5241190;26;112263;-64
2024/04/17 11:18:45;;;;;;;1.20;0.70;;;;;;;14.34;49.94;101071.53;5249330;26;112729;-64
2024/04/17 11:21:13;;;;;;;1.45;0.63;;;;;;;14.39;49.87;101069.44;5234771;26;122168;-64
2024/04/17 11:23:42;;;;;;;2.05;0.70;;;;;;;14.45;49.67;101069.09;5241288;26;122016;-64
2024/04/17 11:26:11;;;;;;;1.10;0.60;;;;;;;14.51;49.53;101068.72;5237448;26;112916;-64
2024/04/17 11:28:43;;;;;;;3.42;0.70;;;;;;;14.59;50.10;101066.50;5235439;26;110366;-64